Time;durP1;ratioP1;P1;durP2;ratioP2;P2;SDS_P1;SDS_P2;PMS_P1;PMS_P2;Temp;Humidity;BMP_temperature;BMP_pressure;BME280_temperature;BME280_humidity;BME280_pressure;Samples;Min_cycle;Max_cycle;Signal;HPM_P1;HPM_P2
2023/01/02 00:01:16;;;;;;;13.83;5.50;;;5.30;99.90;;;;;;4971569;28;20094;-85
2023/01/02 00:03:41;;;;;;;11.73;5.43;;;5.20;99.90;;;;;;4971182;28;20041;-85
2023/01/02 00:06:07;;;;;;;12.90;5.30;;;5.20;99.90;;;;;;4970933;28;20721;-85
2023/01/02 00:08:33;;;;;;;11.37;5.20;;;5.20;99.90;;;;;;4971963;28;20034;-85
2023/01/02 00:10:58;;;;;;;10.57;4.83;;;5.20;99.90;;;;;;4971024;28;20022;-84
2023/01/02 00:13:24;;;;;;;11.20;5.73;;;5.20;99.90;;;;;;4971485;28;20030;-85
2023/01/02 00:15:50;;;;;;;11.33;5.03;;;5.10;99.90;;;;;;4970808;28;20492;-85
2023/01/02 00:18:15;;;;;;;9.83;4.67;;;5.10;99.90;;;;;;4970784;28;20038;-85
2023/01/02 00:20:41;;;;;;;8.70;4.60;;;5.10;99.90;;;;;;4970407;28;20106;-85
2023/01/02 00:23:07;;;;;;;11.17;5.00;;;5.10;99.90;;;;;;4970729;28;20041;-85
2023/01/02 00:25:33;;;;;;;8.90;4.70;;;5.10;99.90;;;;;;4969668;28;20105;-85
2023/01/02 00:27:59;;;;;;;11.07;4.70;;;5.10;99.90;;;;;;4970407;28;20030;-85
2023/01/02 00:30:24;;;;;;;8.93;4.63;;;5.10;99.90;;;;;;4971406;28;20034;-85
2023/01/02 00:32:50;;;;;;;9.30;5.20;;;5.00;99.90;;;;;;4970075;28;20476;-85
2023/01/02 00:35:16;;;;;;;8.60;4.60;;;5.00;99.90;;;;;;4971345;28;20076;-85
2023/01/02 00:37:41;;;;;;;7.67;4.80;;;5.00;99.90;;;;;;4969118;28;20037;-85
2023/01/02 00:40:12;;;;;;;7.43;4.93;;;5.00;99.90;;;;;;4969402;28;20027;-85
2023/01/02 00:42:41;;;;;;;7.97;4.53;;;5.00;99.90;;;;;;4967822;28;20038;-85
2023/01/02 00:45:07;;;;;;;7.50;4.43;;;5.00;99.90;;;;;;4969710;28;20695;-84
2023/01/02 00:47:32;;;;;;;7.73;4.37;;;5.00;99.90;;;;;;4969668;28;20027;-84
2023/01/02 00:49:58;;;;;;;10.83;4.67;;;5.00;99.90;;;;;;4969715;28;20097;-85
2023/01/02 00:52:24;;;;;;;8.50;3.90;;;5.00;99.90;;;;;;4967233;28;20543;-84
2023/01/02 00:54:49;;;;;;;6.33;4.07;;;4.90;99.90;;;;;;4969581;28;20431;-85
2023/01/02 00:57:15;;;;;;;6.40;3.70;;;4.80;99.90;;;;;;4969185;28;20495;-84
2023/01/02 00:59:40;;;;;;;7.90;3.80;;;4.80;99.90;;;;;;4970138;28;21044;-85
2023/01/02 01:02:06;;;;;;;6.47;3.77;;;4.70;99.90;;;;;;4970128;28;20502;-85
2023/01/02 01:04:33;;;;;;;7.33;4.40;;;4.60;99.90;;;;;;4968238;28;20023;-84
2023/01/02 01:06:58;;;;;;;9.27;5.20;;;4.60;99.90;;;;;;4968868;28;20073;-85
2023/01/02 01:09:24;;;;;;;8.73;4.73;;;4.60;99.90;;;;;;4969890;28;20034;-85
2023/01/02 01:11:49;;;;;;;9.53;5.40;;;4.60;99.90;;;;;;4968888;28;20035;-85
2023/01/02 01:14:15;;;;;;;9.17;4.90;;;4.50;99.90;;;;;;4966766;28;20109;-84
2023/01/02 01:16:41;;;;;;;10.17;5.30;;;4.50;99.90;;;;;;4968597;28;20030;-85
2023/01/02 01:19:06;;;;;;;10.17;5.73;;;4.50;99.90;;;;;;4968613;28;20034;-84
2023/01/02 01:21:32;;;;;;;10.27;5.30;;;4.50;99.90;;;;;;4967327;28;20060;-85
2023/01/02 01:23:57;;;;;;;6.70;4.40;;;4.50;99.90;;;;;;4968972;28;20065;-85
2023/01/02 01:26:23;;;;;;;7.17;4.23;;;4.50;99.90;;;;;;4967803;28;20046;-85
2023/01/02 01:28:54;;;;;;;7.87;4.70;;;4.50;99.90;;;;;;4970193;28;20077;-84
2023/01/02 01:31:20;;;;;;;6.83;4.30;;;4.50;99.90;;;;;;4970167;28;20034;-85
2023/01/02 01:33:45;;;;;;;7.77;4.37;;;4.50;99.90;;;;;;4968077;28;20048;-84
2023/01/02 01:36:14;;;;;;;9.13;5.13;;;4.50;99.90;;;;;;4971682;28;20018;-85
2023/01/02 01:38:40;;;;;;;6.97;4.37;;;4.40;99.90;;;;;;4969495;28;20384;-85
2023/01/02 01:41:06;;;;;;;8.27;4.20;;;4.40;99.90;;;;;;4983651;28;20664;-85
2023/01/02 01:43:43;;;;;;;8.00;5.70;;;4.30;99.90;;;;;;4970465;28;20508;-84
2023/01/02 01:46:23;;;;;;;11.30;6.03;;;4.30;99.90;;;;;;4968404;28;20077;-85
2023/01/02 01:49:11;;;;;;;8.93;5.50;;;4.30;99.90;;;;;;4968106;28;20037;-84
2023/01/02 01:51:54;;;;;;;10.30;5.47;;;4.30;99.90;;;;;;4968571;28;20069;-85
2023/01/02 01:54:29;;;;;;;9.57;5.10;;;4.30;99.90;;;;;;4968830;28;20019;-85
2023/01/02 01:56:59;;;;;;;8.32;5.45;;;4.30;99.90;;;;;;4978875;28;20045;-76
2023/01/02 01:59:26;;;;;;;9.70;5.20;;;4.30;99.90;;;;;;4975302;28;20062;-76
2023/01/02 02:01:51;;;;;;;8.57;4.97;;;4.30;99.90;;;;;;4972189;28;20035;-76
2023/01/02 02:04:22;;;;;;;8.90;5.57;;;4.30;99.90;;;;;;4969179;28;20042;-85
2023/01/02 02:06:49;;;;;;;10.20;4.87;;;4.30;99.90;;;;;;4968753;28;20412;-85
2023/01/02 02:09:21;;;;;;;7.70;4.83;;;4.30;99.90;;;;;;4968050;28;20100;-85
2023/01/02 02:11:47;;;;;;;7.47;4.93;;;4.30;99.90;;;;;;4967575;28;20096;-85
2023/01/02 02:14:12;;;;;;;10.00;5.27;;;4.30;99.90;;;;;;4969947;28;20034;-85
2023/01/02 02:16:53;;;;;;;8.10;4.83;;;4.30;99.90;;;;;;4968064;28;20042;-85
2023/01/02 02:19:34;;;;;;;5.80;3.57;;;4.30;99.90;;;;;;4968631;28;20026;-85
2023/01/02 02:22:47;;;;;;;6.27;4.40;;;4.30;99.90;;;;;;4968861;28;20107;-85
2023/01/02 02:25:33;;;;;;;7.50;4.37;;;4.20;99.90;;;;;;4946858;28;20110;-84
2023/01/02 02:28:10;;;;;;;7.53;4.40;;;4.30;99.90;;;;;;4969692;28;20080;-84
2023/01/02 02:30:52;;;;;;;6.47;4.27;;;4.20;99.90;;;;;;4968669;28;20030;-84
2023/01/02 02:33:23;;;;;;;8.40;4.47;;;4.20;99.90;;;;;;4968277;28;20050;-85
2023/01/02 02:36:11;;;;;;;7.83;4.33;;;4.10;99.90;;;;;;4967289;28;20029;-85
2023/01/02 02:38:57;;;;;;;7.77;4.60;;;4.00;99.90;;;;;;4967704;28;20027;-84
2023/01/02 02:41:49;;;;;;;7.60;4.30;;;4.00;99.90;;;;;;4966611;28;20911;-84
2023/01/02 02:44:20;;;;;;;7.77;4.90;;;4.00;99.90;;;;;;4967686;28;20050;-84
2023/01/02 02:46:53;;;;;;;9.07;4.67;;;4.00;99.90;;;;;;4969205;28;20038;-84
2023/01/02 02:50:07;;;;;;;6.97;4.30;;;3.90;99.90;;;;;;4967124;28;20054;-85
2023/01/02 02:52:38;;;;;;;8.53;4.40;;;3.90;99.90;;;;;;4963056;28;20074;-85
2023/01/02 02:55:10;;;;;;;7.17;4.50;;;3.90;99.90;;;;;;4970516;28;20023;-85
2023/01/02 02:57:38;;;;;;;7.10;4.87;;;3.90;99.90;;;;;;4969946;28;20058;-85
2023/01/02 03:00:07;;;;;;;8.70;4.47;;;3.90;99.90;;;;;;4971168;28;20479;-85
2023/01/02 03:02:32;;;;;;;8.70;5.00;;;3.90;99.90;;;;;;4969336;28;20031;-84
2023/01/02 03:05:02;;;;;;;6.50;4.70;;;3.90;99.90;;;;;;4969360;28;20030;-84
2023/01/02 03:07:40;;;;;;;7.33;4.10;;;3.90;99.90;;;;;;4970863;28;20085;-84
2023/01/02 03:10:40;;;;;;;7.10;4.73;;;4.00;99.90;;;;;;4968151;28;20026;-84
2023/01/02 03:13:50;;;;;;;7.80;4.13;;;4.00;99.90;;;;;;4967028;28;20054;-85
2023/01/02 03:16:32;;;;;;;6.33;4.27;;;4.10;99.90;;;;;;4973019;28;20031;-84
2023/01/02 03:19:09;;;;;;;7.10;4.20;;;4.10;99.90;;;;;;4973758;28;20509;-79
2023/01/02 03:21:41;;;;;;;7.73;4.53;;;4.10;99.90;;;;;;4982418;28;20360;-76
2023/01/02 03:24:14;;;;;;;5.83;3.97;;;4.20;99.90;;;;;;4976990;28;20039;-76
2023/01/02 03:26:43;;;;;;;6.47;4.50;;;4.20;99.90;;;;;;4976935;28;20031;-76
2023/01/02 03:29:16;;;;;;;6.90;4.10;;;4.20;99.90;;;;;;4977150;28;20026;-76
2023/01/02 03:31:47;;;;;;;8.37;4.40;;;4.20;99.90;;;;;;4979873;28;20027;-76
2023/01/02 03:34:16;;;;;;;6.77;4.07;;;4.20;99.90;;;;;;4977663;28;20332;-76
2023/01/02 03:36:46;;;;;;;8.97;4.30;;;4.10;99.90;;;;;;4975488;28;20027;-77
2023/01/02 03:39:16;;;;;;;8.03;5.23;;;4.10;99.90;;;;;;4974832;28;20073;-81
2023/01/02 03:42:05;;;;;;;7.90;3.73;;;4.10;99.90;;;;;;4971337;28;20125;-81
2023/01/02 03:44:43;;;;;;;7.10;4.10;;;4.00;99.90;;;;;;4970589;28;20074;-81
2023/01/02 03:47:41;;;;;;;7.67;4.60;;;4.00;99.90;;;;;;4973850;28;20038;-85
2023/01/02 03:50:18;;;;;;;6.17;3.67;;;3.90;99.90;;;;;;4972852;28;20463;-84
2023/01/02 03:52:44;;;;;;;5.97;4.27;;;3.90;99.90;;;;;;4974073;28;20380;-84
2023/01/02 03:55:10;;;;;;;6.47;4.30;;;3.80;99.90;;;;;;4973718;28;20041;-85
2023/01/02 03:57:49;;;;;;;7.73;4.50;;;3.80;99.90;;;;;;4973515;28;20038;-84
2023/01/02 04:00:17;;;;;;;7.80;3.80;;;3.80;99.90;;;;;;4973486;28;20546;-84
2023/01/02 04:03:02;;;;;;;10.03;4.53;;;3.70;99.90;;;;;;4973481;28;20041;-84
2023/01/02 04:05:47;;;;;;;9.00;4.70;;;3.70;99.90;;;;;;4972716;28;20023;-84
2023/01/02 04:08:24;;;;;;;6.63;3.97;;;3.70;99.90;;;;;;4970264;28;20476;-84
2023/01/02 04:10:52;;;;;;;6.70;3.83;;;3.70;99.90;;;;;;4970355;28;20460;-84
2023/01/02 04:13:29;;;;;;;7.50;4.30;;;3.70;99.90;;;;;;4973700;28;20029;-85
2023/01/02 04:15:55;;;;;;;7.00;4.27;;;3.70;99.90;;;;;;4972503;28;20511;-85
2023/01/02 04:18:35;;;;;;;7.13;4.33;;;3.70;99.90;;;;;;4973446;28;20023;-84
2023/01/02 04:21:07;;;;;;;7.53;4.43;;;3.70;99.90;;;;;;4972631;28;20023;-84
2023/01/02 04:23:47;;;;;;;6.70;4.20;;;3.70;99.90;;;;;;4970760;28;20027;-84
2023/01/02 04:26:25;;;;;;;8.80;4.43;;;3.70;99.90;;;;;;4972179;28;20031;-84
2023/01/02 04:28:51;;;;;;;8.10;4.27;;;3.70;99.90;;;;;;4972490;28;20042;-85
2023/01/02 04:31:21;;;;;;;8.17;4.10;;;3.70;99.90;;;;;;4972723;28;20019;-85
2023/01/02 04:33:56;;;;;;;7.87;4.27;;;3.70;99.90;;;;;;4973044;28;20077;-84
2023/01/02 04:36:22;;;;;;;7.22;4.05;;;3.70;99.90;;;;;;4973275;28;20026;-85
2023/01/02 04:38:48;;;;;;;5.47;3.47;;;3.70;99.90;;;;;;4973006;28;20031;-84
2023/01/02 04:41:25;;;;;;;8.93;4.40;;;3.60;99.90;;;;;;4973272;28;20019;-84
2023/01/02 04:43:53;;;;;;;7.50;4.07;;;3.60;99.90;;;;;;4972711;28;20361;-84
2023/01/02 04:46:19;;;;;;;7.57;3.97;;;3.60;99.90;;;;;;4970894;28;20039;-84
2023/01/02 04:48:44;;;;;;;6.27;3.70;;;3.50;99.90;;;;;;4972642;28;20018;-84
2023/01/02 04:51:10;;;;;;;6.93;3.83;;;3.60;99.90;;;;;;4972172;28;20034;-85
2023/01/02 04:53:35;;;;;;;6.07;4.10;;;3.60;99.90;;;;;;4972134;28;20034;-84
2023/01/02 04:56:01;;;;;;;5.77;3.80;;;3.60;99.90;;;;;;4972040;28;20019;-84
2023/01/02 04:58:26;;;;;;;5.80;3.53;;;3.50;99.90;;;;;;4973054;28;21415;-85
2023/01/02 05:00:52;;;;;;;8.10;4.07;;;3.50;99.90;;;;;;4972219;28;20054;-84
2023/01/02 05:03:18;;;;;;;6.60;4.30;;;3.50;99.90;;;;;;4972292;28;20081;-84
2023/01/02 05:05:43;;;;;;;6.40;3.80;;;3.50;99.90;;;;;;4970405;28;20954;-84
2023/01/02 05:08:09;;;;;;;7.07;4.23;;;3.50;99.90;;;;;;4973376;28;20034;-84
2023/01/02 05:10:35;;;;;;;8.67;3.93;;;3.50;99.90;;;;;;4971618;28;20026;-85
2023/01/02 05:13:00;;;;;;;10.70;3.97;;;3.50;99.90;;;;;;4971780;28;20045;-85
2023/01/02 05:15:26;;;;;;;5.73;3.63;;;3.50;99.90;;;;;;4971533;28;20498;-85
2023/01/02 05:17:54;;;;;;;26.40;16.53;;;3.50;99.90;;;;;;4972118;28;20151;-85
2023/01/02 05:20:20;;;;;;;9.93;4.17;;;3.40;99.90;;;;;;4969065;28;20089;-84
2023/01/02 05:25:34;;;;;;;7.27;3.67;;;3.30;99.90;;;;;;4973621;28;20029;-84
2023/01/02 05:28:01;;;;;;;6.23;3.60;;;3.30;99.90;;;;;;4973858;28;20038;-85
2023/01/02 05:30:27;;;;;;;6.70;3.70;;;3.30;99.90;;;;;;4976539;28;20480;-84
2023/01/02 05:32:52;;;;;;;7.13;3.70;;;3.20;99.90;;;;;;4974298;28;20122;-84
2023/01/02 05:35:18;;;;;;;6.73;4.00;;;3.20;99.90;;;;;;4974306;28;20030;-85
2023/01/02 05:37:44;;;;;;;7.50;4.53;;;3.20;99.90;;;;;;4971311;28;20637;-85
2023/01/02 05:40:10;;;;;;;8.33;4.50;;;3.10;99.90;;;;;;4974704;28;20043;-84
2023/01/02 05:42:35;;;;;;;6.83;3.97;;;3.10;99.90;;;;;;4973075;28;20098;-84
2023/01/02 05:45:01;;;;;;;8.90;4.60;;;3.00;99.90;;;;;;4974409;28;20061;-76
2023/01/02 05:47:26;;;;;;;9.37;4.00;;;2.90;99.90;;;;;;4978935;28;20033;-76
2023/01/02 05:49:52;;;;;;;6.37;4.07;;;2.90;99.90;;;;;;4978399;28;20023;-77
2023/01/02 05:52:17;;;;;;;7.10;4.40;;;2.80;99.90;;;;;;4975460;28;20026;-76
2023/01/02 05:54:43;;;;;;;11.30;4.67;;;2.80;99.90;;;;;;4975681;28;20027;-76
2023/01/02 05:57:08;;;;;;;7.80;5.37;;;2.80;99.90;;;;;;4975185;28;20094;-76
2023/01/02 05:59:34;;;;;;;9.57;4.40;;;2.80;99.90;;;;;;4973746;28;20531;-77
2023/01/02 06:01:59;;;;;;;12.83;5.17;;;2.70;99.90;;;;;;4975639;28;20043;-76
2023/01/02 06:04:25;;;;;;;7.33;4.43;;;2.70;99.90;;;;;;4978553;28;20487;-77
2023/01/02 06:06:50;;;;;;;10.40;4.80;;;2.70;99.90;;;;;;4978472;28;20015;-77
2023/01/02 06:09:16;;;;;;;8.80;4.87;;;2.70;99.90;;;;;;4972141;28;20023;-76
2023/01/02 06:11:42;;;;;;;9.17;4.53;;;2.80;99.90;;;;;;4974556;28;20027;-77
2023/01/02 06:14:11;;;;;;;8.90;4.40;;;2.80;99.90;;;;;;4976272;28;20050;-76
2023/01/02 06:16:38;;;;;;;9.57;4.83;;;2.80;99.90;;;;;;4980321;28;20045;-70
2023/01/02 06:19:04;;;;;;;7.10;4.17;;;2.90;99.90;;;;;;4984093;28;20097;-71
2023/01/02 06:21:30;;;;;;;7.53;4.70;;;2.90;99.90;;;;;;4975517;28;20414;-77
2023/01/02 06:23:56;;;;;;;7.57;4.83;;;2.90;99.90;;;;;;4976411;28;20031;-77
2023/01/02 06:26:25;;;;;;;7.73;4.50;;;3.00;99.90;;;;;;4976258;28;20470;-77
2023/01/02 06:28:53;;;;;;;7.13;4.40;;;3.00;99.90;;;;;;4976058;28;20035;-77
2023/01/02 06:31:22;;;;;;;7.53;4.57;;;3.10;99.90;;;;;;4980230;28;20110;-76
2023/01/02 06:33:55;;;;;;;8.67;4.87;;;3.10;99.90;;;;;;4977026;28;20026;-77
2023/01/02 06:36:21;;;;;;;6.93;4.37;;;3.10;99.90;;;;;;4977735;28;20029;-77
2023/01/02 06:38:46;;;;;;;7.87;4.33;;;3.10;99.90;;;;;;4976421;28;20035;-77
2023/01/02 06:41:13;;;;;;;7.03;4.80;;;3.00;99.90;;;;;;4977490;28;20027;-76
2023/01/02 06:43:47;;;;;;;11.03;4.73;;;3.00;99.90;;;;;;4968372;28;20045;-84
2023/01/02 06:46:14;;;;;;;6.77;4.43;;;3.00;99.90;;;;;;4965167;28;20515;-84
2023/01/02 06:48:41;;;;;;;8.60;4.83;;;3.00;99.90;;;;;;4962934;28;20030;-84
2023/01/02 06:51:09;;;;;;;7.47;4.73;;;2.90;99.90;;;;;;4964752;28;20097;-84
2023/01/02 06:53:38;;;;;;;6.93;4.17;;;2.90;99.90;;;;;;4964985;28;20046;-82
2023/01/02 06:56:05;;;;;;;8.70;4.90;;;2.90;99.90;;;;;;4964855;28;20045;-81
2023/01/02 06:58:33;;;;;;;7.53;4.20;;;2.90;99.90;;;;;;4964282;28;20114;-82
2023/01/02 07:01:11;;;;;;;8.03;4.57;;;2.90;99.90;;;;;;4964679;28;20041;-77
2023/01/02 07:03:37;;;;;;;6.50;4.17;;;2.80;99.90;;;;;;4963684;28;20369;-82
2023/01/02 07:06:06;;;;;;;8.57;4.57;;;2.90;99.90;;;;;;4964605;28;20035;-83
2023/01/02 07:08:33;;;;;;;8.87;4.60;;;2.90;99.90;;;;;;4963958;28;20031;-82
2023/01/02 07:11:25;;;;;;;6.87;4.07;;;2.90;99.90;;;;;;4963590;28;20210;-82
2023/01/02 07:13:53;;;;;;;20.80;15.60;;;2.90;99.90;;;;;;4961268;28;20043;-82
2023/01/02 07:16:21;;;;;;;8.50;5.30;;;2.80;99.90;;;;;;4964353;28;20985;-82
2023/01/02 07:18:47;;;;;;;8.20;5.00;;;2.80;99.90;;;;;;4963931;28;20093;-84
2023/01/02 07:21:14;;;;;;;8.00;5.37;;;2.80;99.90;;;;;;4964173;28;20113;-82
2023/01/02 07:23:41;;;;;;;8.37;5.57;;;2.80;99.90;;;;;;4964106;28;20475;-80
2023/01/02 07:26:07;;;;;;;8.23;4.90;;;2.80;99.90;;;;;;4964858;28;20501;-82
2023/01/02 07:28:35;;;;;;;6.80;4.00;;;2.80;99.90;;;;;;4963787;28;20522;-78
2023/01/02 07:31:06;;;;;;;6.37;4.17;;;2.80;99.90;;;;;;4957151;28;20070;-82
2023/01/02 07:33:33;;;;;;;6.77;4.40;;;2.90;99.90;;;;;;4958150;28;20042;-82
2023/01/02 07:36:00;;;;;;;6.37;4.70;;;2.90;99.90;;;;;;4958394;28;20526;-82
2023/01/02 07:38:27;;;;;;;8.97;5.53;;;2.90;99.90;;;;;;4957695;28;20035;-82
2023/01/02 07:40:53;;;;;;;9.67;5.77;;;3.00;99.90;;;;;;4960406;28;20036;-77
2023/01/02 07:43:19;;;;;;;12.23;6.00;;;3.00;99.90;;;;;;4966552;28;20074;-77
2023/01/02 07:45:45;;;;;;;10.83;4.83;;;3.00;99.90;;;;;;4967581;28;20402;-77
2023/01/02 07:48:11;;;;;;;10.70;6.50;;;3.00;99.90;;;;;;4969966;28;20034;-77
2023/01/02 07:50:37;;;;;;;15.00;10.47;;;3.10;99.90;;;;;;4971002;28;20030;-77
2023/01/02 07:53:03;;;;;;;23.50;15.33;;;3.10;99.90;;;;;;4968916;28;20038;-77
2023/01/02 07:55:28;;;;;;;9.97;6.13;;;3.20;99.90;;;;;;4968965;28;20050;-76
2023/01/02 07:57:55;;;;;;;9.17;5.30;;;3.20;99.90;;;;;;4969001;28;20033;-77
2023/01/02 08:00:21;;;;;;;8.77;4.20;;;3.20;99.90;;;;;;4968837;28;20454;-77
2023/01/02 08:02:48;;;;;;;7.63;4.27;;;3.20;99.90;;;;;;4970838;28;20022;-77
2023/01/02 08:05:15;;;;;;;8.53;4.50;;;3.20;99.90;;;;;;4972586;28;20336;-77
2023/01/02 08:07:43;;;;;;;8.93;5.27;;;3.10;99.90;;;;;;4974808;28;20031;-77
2023/01/02 08:10:10;;;;;;;9.13;4.70;;;3.20;99.90;;;;;;4970287;28;20023;-77
2023/01/02 08:12:36;;;;;;;7.27;4.80;;;3.20;99.90;;;;;;4974725;28;20083;-77
2023/01/02 08:15:03;;;;;;;6.20;4.40;;;3.20;99.90;;;;;;4973965;28;20033;-77
2023/01/02 08:17:32;;;;;;;9.87;5.63;;;3.20;99.90;;;;;;4971203;28;20125;-77
2023/01/02 08:19:58;;;;;;;10.60;6.80;;;3.30;99.90;;;;;;4966168;28;20034;-82
2023/01/02 08:22:24;;;;;;;9.93;6.27;;;3.40;99.90;;;;;;4960648;28;20156;-82
2023/01/02 08:24:50;;;;;;;11.87;6.83;;;3.50;99.90;;;;;;4963496;28;20034;-82
2023/01/02 08:27:16;;;;;;;10.17;6.80;;;3.50;99.90;;;;;;4961178;28;20113;-82
2023/01/02 08:29:42;;;;;;;13.10;7.53;;;3.60;99.90;;;;;;4960291;28;21467;-82
2023/01/02 08:32:07;;;;;;;17.67;10.00;;;3.70;99.90;;;;;;4961984;28;20034;-82
2023/01/02 08:34:34;;;;;;;17.70;9.33;;;3.80;99.90;;;;;;4961465;28;20035;-82
2023/01/02 08:36:59;;;;;;;14.70;8.00;;;3.80;99.90;;;;;;4961046;28;20054;-82
2023/01/02 08:39:25;;;;;;;11.83;7.70;;;3.90;99.90;;;;;;4960102;28;21311;-82
2023/01/02 08:41:51;;;;;;;9.33;6.20;;;4.00;99.90;;;;;;4964135;28;21010;-82
2023/01/02 08:44:16;;;;;;;9.07;5.57;;;4.00;99.90;;;;;;4965894;28;20035;-81
2023/01/02 08:46:42;;;;;;;9.63;5.40;;;4.20;99.90;;;;;;4965828;28;20472;-82
2023/01/02 08:49:07;;;;;;;6.73;4.87;;;4.20;99.90;;;;;;4965309;28;20045;-82
2023/01/02 08:51:33;;;;;;;9.67;5.33;;;4.30;99.90;;;;;;4965916;28;20034;-82
2023/01/02 08:53:58;;;;;;;9.47;5.20;;;4.40;99.90;;;;;;4965990;28;20030;-82
2023/01/02 08:56:27;;;;;;;10.07;6.03;;;4.40;99.90;;;;;;4965812;28;20062;-82
2023/01/02 08:58:55;;;;;;;11.53;5.47;;;4.50;99.90;;;;;;4964644;28;20123;-82
2023/01/02 09:01:22;;;;;;;9.53;6.30;;;4.60;99.90;;;;;;4965223;28;20049;-82
2023/01/02 09:03:48;;;;;;;9.73;5.73;;;4.70;99.90;;;;;;4966228;28;20031;-82
2023/01/02 09:06:14;;;;;;;9.37;5.87;;;4.80;99.90;;;;;;4964993;28;20515;-82
2023/01/02 09:08:39;;;;;;;8.40;6.23;;;4.90;99.90;;;;;;4965941;28;20043;-82
2023/01/02 09:11:18;;;;;;;7.50;3.97;;;5.00;99.90;;;;;;4963682;28;20495;-85
2023/01/02 09:13:43;;;;;;;7.03;4.30;;;5.00;99.90;;;;;;4964216;28;20042;-84
2023/01/02 09:16:09;;;;;;;7.40;3.80;;;5.10;99.90;;;;;;4966014;28;20039;-85
2023/01/02 09:18:37;;;;;;;6.47;3.30;;;5.20;99.90;;;;;;4966065;28;20038;-85
2023/01/02 09:21:02;;;;;;;6.43;3.90;;;5.30;99.90;;;;;;4963697;28;20065;-84
2023/01/02 09:23:29;;;;;;;7.20;3.93;;;5.40;99.90;;;;;;4965480;28;20088;-84
2023/01/02 09:25:59;;;;;;;7.63;4.00;;;5.60;99.90;;;;;;4965267;28;20031;-85
2023/01/02 09:28:26;;;;;;;7.20;4.27;;;5.80;99.90;;;;;;4963120;28;20049;-85
2023/01/02 09:30:52;;;;;;;8.07;4.80;;;5.90;99.90;;;;;;4965247;28;20054;-84
2023/01/02 09:33:18;;;;;;;6.67;4.43;;;6.00;99.90;;;;;;4966013;28;20118;-85
2023/01/02 09:35:43;;;;;;;7.77;4.40;;;6.10;99.90;;;;;;4965144;28;20041;-85
2023/01/02 09:38:09;;;;;;;10.00;4.73;;;6.20;99.90;;;;;;4965258;28;20041;-84
2023/01/02 09:40:37;;;;;;;9.73;5.10;;;6.30;99.90;;;;;;4964109;28;20411;-84
2023/01/02 09:43:05;;;;;;;6.17;4.20;;;6.50;99.90;;;;;;4965539;28;20046;-84
2023/01/02 09:45:32;;;;;;;7.50;3.70;;;6.70;99.90;;;;;;4965293;28;20162;-84
2023/01/02 09:47:59;;;;;;;6.00;3.73;;;7.00;99.90;;;;;;4964451;28;20672;-85
2023/01/02 09:50:28;;;;;;;6.83;4.73;;;7.20;99.90;;;;;;4965763;28;20035;-84
2023/01/02 09:52:59;;;;;;;6.20;3.70;;;7.30;99.90;;;;;;4967066;28;21588;-85
2023/01/02 09:55:44;;;;;;;7.03;3.97;;;7.50;99.90;;;;;;4965038;28;20647;-82
2023/01/02 09:58:38;;;;;;;10.03;3.90;;;7.70;99.90;;;;;;4965064;28;20048;-82
2023/01/02 10:01:10;;;;;;;6.30;3.90;;;7.90;99.90;;;;;;4964971;28;21313;-82
2023/01/02 10:03:43;;;;;;;6.90;4.00;;;8.20;99.90;;;;;;4965152;28;20046;-82
2023/01/02 10:06:16;;;;;;;7.53;3.83;;;8.40;99.90;;;;;;4965259;28;20101;-82
2023/01/02 10:09:04;;;;;;;7.57;3.83;;;8.60;99.90;;;;;;4965486;28;20035;-82
2023/01/02 10:11:57;;;;;;;5.37;3.10;;;8.90;99.90;;;;;;4966809;28;20031;-82
2023/01/02 10:14:58;;;;;;;6.33;3.03;;;9.10;99.90;;;;;;4967126;28;20519;-82
2023/01/02 10:17:26;;;;;;;6.20;3.17;;;9.50;99.90;;;;;;4964336;28;20035;-82
2023/01/02 10:19:55;;;;;;;7.57;5.17;;;10.00;99.90;;;;;;4964926;28;20038;-83
2023/01/02 10:22:36;;;;;;;8.10;3.90;;;10.40;99.90;;;;;;4964025;28;20039;-85
2023/01/02 10:25:09;;;;;;;12.40;7.28;;;10.70;99.90;;;;;;4966947;28;20154;-85
2023/01/02 10:27:46;;;;;;;5.80;3.00;;;10.90;99.90;;;;;;4965402;28;21403;-85
2023/01/02 10:30:20;;;;;;;6.17;4.10;;;11.20;99.90;;;;;;4965517;28;20046;-85
2023/01/02 10:32:59;;;;;;;4.80;2.90;;;11.30;99.90;;;;;;4964339;28;20037;-83
2023/01/02 10:35:56;;;;;;;4.13;2.53;;;11.40;99.90;;;;;;4963923;28;20038;-83
2023/01/02 10:38:22;;;;;;;6.30;4.10;;;11.50;99.90;;;;;;4964481;28;20056;-83
2023/01/02 10:40:49;;;;;;;5.97;3.63;;;11.50;99.90;;;;;;4964742;28;20539;-83
2023/01/02 10:43:16;;;;;;;4.88;2.80;;;11.50;99.90;;;;;;4964336;28;20484;-82
2023/01/02 10:45:44;;;;;;;7.07;2.50;;;11.40;99.90;;;;;;4962489;28;20054;-82
2023/01/02 10:48:11;;;;;;;3.30;2.10;;;11.30;99.90;;;;;;4963957;28;21409;-83
2023/01/02 10:50:50;;;;;;;2.72;2.00;;;11.30;99.90;;;;;;4964817;28;20121;-83
2023/01/02 10:53:40;;;;;;;4.63;2.17;;;11.40;99.90;;;;;;4965070;28;20030;-83
2023/01/02 10:56:13;;;;;;;7.17;2.40;;;11.40;99.90;;;;;;4965311;28;20046;-83
2023/01/02 10:58:48;;;;;;;6.70;2.30;;;11.40;99.90;;;;;;4964131;28;20126;-83
2023/01/02 11:01:19;;;;;;;7.03;3.00;;;11.40;99.90;;;;;;4964597;28;20034;-83
2023/01/02 11:03:46;;;;;;;4.10;2.75;;;11.50;99.90;;;;;;4966924;28;20151;-83
2023/01/02 11:06:24;;;;;;;5.80;2.97;;;11.50;99.90;;;;;;4973631;28;20383;-80
2023/01/02 11:08:58;;;;;;;7.07;3.25;;;11.60;99.90;;;;;;4982289;28;20023;-82
2023/01/02 11:11:25;;;;;;;5.97;2.75;;;11.70;99.90;;;;;;4978454;28;20103;-80
2023/01/02 11:13:54;;;;;;;7.45;3.30;;;11.70;99.90;;;;;;4982035;28;20145;-80
2023/01/02 11:16:22;;;;;;;8.88;3.25;;;11.70;99.90;;;;;;4980123;28;20353;-80
2023/01/02 11:18:50;;;;;;;4.13;2.90;;;11.70;99.90;;;;;;4980612;28;20027;-80
2023/01/02 11:21:27;;;;;;;6.13;3.38;;;11.80;99.90;;;;;;4980400;28;20351;-81
2023/01/02 11:24:03;;;;;;;8.25;3.40;;;11.90;99.90;;;;;;4978304;28;20030;-85
2023/01/02 11:26:31;;;;;;;5.28;2.78;;;11.90;99.90;;;;;;4965259;28;20055;-86
2023/01/02 11:29:06;;;;;;;4.03;3.03;;;11.90;99.90;;;;;;4963054;28;20035;-85
2023/01/02 11:31:31;;;;;;;7.40;3.35;;;12.00;99.90;;;;;;4966677;28;20354;-86
2023/01/02 11:34:09;;;;;;;9.95;2.60;;;12.10;99.90;;;;;;4966795;28;20035;-85
2023/01/02 11:36:35;;;;;;;7.95;2.67;;;12.10;99.90;;;;;;4970362;28;20027;-86
2023/01/02 11:39:20;;;;;;;4.78;2.88;;;12.20;99.90;;;;;;4970673;28;20038;-86
2023/01/02 11:44:50;;;;;;;8.00;2.47;;;12.30;99.90;;;;;;4983158;28;20133;-80
2023/01/02 11:47:16;;;;;;;7.63;2.63;;;12.40;99.90;;;;;;4975918;28;20471;-83
2023/01/02 11:49:44;;;;;;;5.53;2.63;;;12.40;99.90;;;;;;4966454;28;20038;-83
2023/01/02 11:52:17;;;;;;;4.22;2.20;;;12.50;99.90;;;;;;4968997;28;20395;-83
2023/01/02 11:55:02;;;;;;;5.75;3.00;;;12.60;99.90;;;;;;4968271;28;20030;-83
2023/01/02 11:57:49;;;;;;;4.78;2.42;;;12.60;99.90;;;;;;4964309;28;20039;-83
2023/01/02 12:00:18;;;;;;;4.95;2.60;;;12.60;99.90;;;;;;4981161;28;20061;-83
2023/01/02 12:02:47;;;;;;;6.20;3.03;;;12.60;99.90;;;;;;4967913;28;20034;-83
2023/01/02 12:05:22;;;;;;;8.63;4.00;;;12.70;99.90;;;;;;4966546;28;20085;-83
2023/01/02 12:08:00;;;;;;;7.82;3.60;;;12.70;99.90;;;;;;4966560;28;20659;-83
2023/01/02 12:10:40;;;;;;;6.68;3.38;;;12.70;99.90;;;;;;4967830;28;20105;-85
2023/01/02 12:13:18;;;;;;;3.38;1.90;;;12.80;99.90;;;;;;4966758;28;20035;-83
2023/01/02 12:16:03;;;;;;;4.93;2.10;;;12.80;99.90;;;;;;4968210;28;20122;-83
2023/01/02 12:19:04;;;;;;;3.03;1.85;;;12.90;99.90;;;;;;4968655;28;20464;-83
2023/01/02 12:21:41;;;;;;;6.32;1.60;;;12.90;99.90;;;;;;4965899;28;20065;-83
2023/01/02 12:24:32;;;;;;;2.50;1.40;;;13.00;99.90;;;;;;4965784;28;20034;-83
2023/01/02 12:27:27;;;;;;;2.70;1.60;;;13.10;99.90;;;;;;4966295;28;20090;-83
2023/01/02 12:30:07;;;;;;;4.95;1.98;;;13.10;99.90;;;;;;4966715;28;20034;-83
2023/01/02 12:33:11;;;;;;;2.65;1.48;;;13.20;99.90;;;;;;4968728;28;20188;-83
2023/01/02 12:35:36;;;;;;;6.88;1.30;;;13.20;99.90;;;;;;4970245;28;20649;-83
2023/01/02 12:38:10;;;;;;;7.88;1.65;;;13.20;99.90;;;;;;4968763;28;20177;-83
2023/01/02 12:40:42;;;;;;;3.55;1.55;;;13.20;99.90;;;;;;4969765;28;20070;-83
2023/01/02 12:43:26;;;;;;;4.53;1.60;;;13.20;99.90;;;;;;4969525;28;20696;-83
2023/01/02 12:46:15;;;;;;;4.68;1.60;;;13.20;99.90;;;;;;4968358;28;20126;-84
2023/01/02 12:49:00;;;;;;;2.45;1.42;;;13.30;99.90;;;;;;4966250;28;20035;-83
2023/01/02 12:51:50;;;;;;;4.95;1.42;;;13.30;99.90;;;;;;4968386;28;20170;-83
2023/01/02 12:54:30;;;;;;;4.28;1.42;;;13.40;99.90;;;;;;4967010;28;20070;-83
2023/01/02 12:57:24;;;;;;;2.05;1.30;;;13.40;99.90;;;;;;4967061;28;20033;-83
2023/01/02 12:59:52;;;;;;;2.35;1.30;;;13.40;99.90;;;;;;4968046;28;20208;-83
2023/01/02 13:02:37;;;;;;;6.53;1.30;;;13.40;99.90;;;;;;4978438;28;20664;-78
2023/01/02 13:05:20;;;;;;;6.25;1.40;;;13.40;99.90;;;;;;4980135;28;20085;-78
2023/01/02 13:08:02;;;;;;;7.20;1.80;;;13.40;99.90;;;;;;4983007;28;20029;-78
2023/01/02 13:10:29;;;;;;;3.25;1.35;;;13.40;99.90;;;;;;4978700;28;20046;-78
2023/01/02 13:12:56;;;;;;;3.25;1.65;;;13.40;99.90;;;;;;4979901;28;20065;-78
2023/01/02 13:15:29;;;;;;;4.80;1.80;;;13.40;99.90;;;;;;4977743;28;20042;-77
2023/01/02 13:18:37;;;;;;;4.38;2.00;;;13.30;99.90;;;;;;4978303;28;20042;-78
2023/01/02 13:21:27;;;;;;;4.10;1.73;;;13.30;99.90;;;;;;4971658;28;20102;-78